createdAt,value
2017-05-24T00:00:23.118Z,0
2017-05-24T00:01:03.637Z,0
2017-05-24T00:01:44.146Z,0
2017-05-24T00:02:24.643Z,0
2017-05-24T00:03:05.146Z,0
2017-05-24T00:03:45.635Z,0
2017-05-24T00:04:26.120Z,0
2017-05-24T00:05:06.666Z,0
2017-05-24T00:05:47.733Z,0
2017-05-24T00:06:28.227Z,0
2017-05-24T00:07:08.721Z,0
2017-05-24T00:07:49.950Z,0
2017-05-24T00:08:30.438Z,0
2017-05-24T00:09:10.932Z,0
2017-05-24T00:09:51.425Z,0
2017-05-24T00:10:31.918Z,0
2017-05-24T00:11:12.408Z,0
2017-05-24T00:11:52.920Z,0
2017-05-24T00:12:33.409Z,0
2017-05-24T00:13:13.888Z,0
2017-05-24T00:13:54.958Z,0
2017-05-24T00:14:35.442Z,0
2017-05-24T00:15:15.945Z,0
2017-05-24T00:15:56.435Z,0
2017-05-24T00:16:36.929Z,0
2017-05-24T00:17:17.431Z,0
2017-05-24T00:17:57.916Z,0
2017-05-24T00:18:39.738Z,0
2017-05-24T00:19:20.225Z,0
2017-05-24T00:20:00.714Z,0
2017-05-24T00:20:41.206Z,0
2017-05-24T00:21:21.706Z,0
2017-05-24T00:22:02.190Z,0
2017-05-24T00:22:42.669Z,0
2017-05-24T00:25:17.182Z,0
2017-05-24T00:25:57.678Z,0
2017-05-24T00:26:38.678Z,0
2017-05-24T00:27:19.181Z,0
2017-05-24T00:27:59.672Z,0
2017-05-24T00:28:40.162Z,0
2017-05-24T00:29:20.652Z,0
2017-05-24T00:30:01.136Z,0
2017-05-24T00:30:41.625Z,0
2017-05-24T00:31:22.121Z,0
2017-05-24T00:32:02.606Z,0
2017-05-24T00:32:43.112Z,0
2017-05-24T00:33:23.598Z,0
2017-05-24T00:34:04.101Z,0
2017-05-24T00:34:44.568Z,0
2017-05-24T00:35:25.048Z,0
2017-05-24T00:36:05.563Z,0
2017-05-24T00:36:46.017Z,0
2017-05-24T00:37:26.490Z,0
2017-05-24T00:38:07.016Z,0
2017-05-24T00:38:47.506Z,0
2017-05-24T00:39:28.005Z,0
2017-05-24T00:40:08.491Z,0
2017-05-24T00:40:49.910Z,0
2017-05-24T00:41:30.403Z,0
2017-05-24T00:42:10.897Z,0
2017-05-24T00:42:51.388Z,0
2017-05-24T00:43:31.879Z,0
2017-05-24T00:44:12.357Z,0
2017-05-24T00:44:52.853Z,0
2017-05-24T00:45:33.318Z,0
2017-05-24T00:46:13.815Z,0
2017-05-24T00:46:54.293Z,0
2017-05-24T00:47:34.797Z,0
2017-05-24T00:48:15.291Z,0
2017-05-24T00:48:55.781Z,0
2017-05-24T00:49:36.269Z,0
2017-05-24T00:50:16.769Z,0
2017-05-24T00:50:57.260Z,0
2017-05-24T00:51:37.751Z,0
2017-05-24T00:52:18.990Z,0
2017-05-24T00:52:59.452Z,0
2017-05-24T00:53:39.945Z,0
2017-05-24T00:54:20.440Z,0
2017-05-24T00:55:00.927Z,0
2017-05-24T00:55:41.415Z,0
2017-05-24T00:56:21.897Z,0
2017-05-24T00:57:02.404Z,0
2017-05-24T00:57:42.879Z,0
2017-05-24T00:58:23.353Z,0
2017-05-24T00:59:03.831Z,0
2017-05-24T00:59:44.338Z,0
2017-05-24T01:00:24.828Z,0
2017-05-24T01:01:05.361Z,0
2017-05-24T01:01:45.854Z,0
2017-05-24T01:02:26.352Z,0
2017-05-24T01:05:04.473Z,0
2017-05-24T01:05:44.914Z,0
2017-05-24T01:06:25.458Z,0
2017-05-24T01:07:05.954Z,0
2017-05-24T01:07:46.435Z,0
2017-05-24T01:08:26.942Z,0
2017-05-24T01:09:07.421Z,0
2017-05-24T01:09:47.907Z,0
2017-05-24T01:10:28.406Z,0
2017-05-24T01:11:08.897Z,0
2017-05-24T01:11:50.369Z,0
2017-05-24T01:14:23.403Z,0
2017-05-24T01:15:03.889Z,0
2017-05-24T01:15:44.384Z,0
2017-05-24T01:16:24.917Z,0
2017-05-24T01:17:06.310Z,0
2017-05-24T01:17:46.816Z,0
2017-05-24T01:18:27.296Z,0
2017-05-24T01:19:09.621Z,0
2017-05-24T01:19:50.114Z,0
2017-05-24T01:20:30.596Z,0
2017-05-24T01:21:11.979Z,0
2017-05-24T01:21:52.472Z,0
2017-05-24T01:22:32.960Z,0
2017-05-24T01:23:13.449Z,0
2017-05-24T01:23:53.946Z,0
2017-05-24T01:24:34.435Z,0
2017-05-24T01:25:14.919Z,0
2017-05-24T01:25:55.425Z,0
2017-05-24T01:26:35.905Z,0
2017-05-24T01:27:16.393Z,0
2017-05-24T01:27:56.866Z,0
2017-05-24T01:28:37.365Z,0
2017-05-24T01:29:17.845Z,0
2017-05-24T01:29:58.332Z,0
2017-05-24T01:30:38.836Z,0
2017-05-24T01:31:20.317Z,0
2017-05-24T01:32:00.804Z,0
2017-05-24T01:32:41.306Z,0
2017-05-24T01:33:21.795Z,0
2017-05-24T01:34:02.284Z,0
2017-05-24T01:34:42.780Z,0
2017-05-24T01:35:23.272Z,0
2017-05-24T01:36:03.767Z,0
2017-05-24T01:38:21.645Z,0
2017-05-24T01:39:02.072Z,0
2017-05-24T01:39:42.557Z,0
2017-05-24T01:40:23.041Z,0
2017-05-24T01:41:03.514Z,0
2017-05-24T01:41:44.017Z,0
2017-05-24T01:42:24.502Z,0
2017-05-24T01:43:06.569Z,0
2017-05-24T01:43:47.053Z,0
2017-05-24T01:44:27.546Z,0
2017-05-24T01:45:08.042Z,0
2017-05-24T01:45:48.529Z,0
2017-05-24T01:46:29.022Z,0
2017-05-24T01:47:09.519Z,0
2017-05-24T01:47:50.007Z,0
2017-05-24T01:48:30.488Z,0
2017-05-24T01:49:10.984Z,0
2017-05-24T01:49:51.466Z,0
2017-05-24T01:50:31.974Z,0
2017-05-24T01:51:12.484Z,0
2017-05-24T01:51:53.040Z,0
2017-05-24T01:52:33.467Z,0
2017-05-24T01:53:13.975Z,0
2017-05-24T01:53:54.462Z,0
2017-05-24T01:54:34.948Z,0
2017-05-24T01:55:15.509Z,0
2017-05-24T01:55:56.082Z,0
2017-05-24T01:56:36.486Z,0
2017-05-24T01:57:16.972Z,0
2017-05-24T01:57:57.474Z,0
2017-05-24T01:58:39.882Z,0
2017-05-24T01:59:20.376Z,0
2017-05-24T02:00:00.839Z,0
2017-05-24T02:00:41.340Z,0
2017-05-24T02:01:21.812Z,0
2017-05-24T02:02:02.290Z,0
2017-05-24T02:02:42.784Z,0
2017-05-24T02:03:23.278Z,0
2017-05-24T02:04:03.775Z,0
2017-05-24T02:04:44.280Z,0
2017-05-24T02:05:25.489Z,0
2017-05-24T02:06:05.975Z,0
2017-05-24T02:06:46.462Z,0
2017-05-24T02:09:20.209Z,0
2017-05-24T02:10:00.723Z,0
2017-05-24T02:10:41.200Z,0
2017-05-24T02:13:14.206Z,0
2017-05-24T02:13:54.689Z,0
2017-05-24T02:14:36.041Z,0
2017-05-24T02:15:16.514Z,0
2017-05-24T02:17:29.247Z,0
2017-05-24T02:18:09.718Z,0
2017-05-24T02:20:22.432Z,0
2017-05-24T02:21:02.911Z,0
2017-05-24T02:21:43.389Z,0
2017-05-24T02:22:23.881Z,0
2017-05-24T02:23:04.931Z,0
2017-05-24T02:23:45.409Z,0
2017-05-24T02:24:25.904Z,0
2017-05-24T02:25:07.148Z,0
2017-05-24T02:25:47.640Z,0
2017-05-24T02:26:28.130Z,0
2017-05-24T02:27:08.621Z,0
2017-05-24T02:27:49.110Z,0
2017-05-24T02:28:29.612Z,0
2017-05-24T02:29:10.105Z,0
2017-05-24T02:29:50.584Z,0
2017-05-24T02:30:31.073Z,0
2017-05-24T02:31:11.551Z,0
2017-05-24T02:31:52.093Z,0
2017-05-24T02:32:33.519Z,0
2017-05-24T02:33:14.023Z,0
2017-05-24T02:33:54.510Z,0
2017-05-24T02:34:35.006Z,0
2017-05-24T02:35:15.503Z,0
2017-05-24T02:35:56.013Z,0
2017-05-24T02:36:36.503Z,0
2017-05-24T02:37:17.002Z,0
2017-05-24T02:37:57.468Z,0
2017-05-24T02:38:37.959Z,0
2017-05-24T02:39:19.158Z,0
2017-05-24T02:39:59.650Z,0
2017-05-24T02:40:40.150Z,0
2017-05-24T02:41:20.643Z,0
2017-05-24T02:42:01.128Z,0
2017-05-24T02:42:41.621Z,0
2017-05-24T02:43:22.120Z,0
2017-05-24T02:44:02.607Z,0
2017-05-24T02:44:43.941Z,0
2017-05-24T02:45:24.446Z,0
2017-05-24T02:46:04.935Z,0
2017-05-24T02:46:46.158Z,0
2017-05-24T02:47:26.646Z,0
2017-05-24T02:48:07.135Z,0
2017-05-24T02:48:47.625Z,0
2017-05-24T02:49:28.111Z,0
2017-05-24T02:50:08.605Z,0
2017-05-24T02:50:49.109Z,0
2017-05-24T02:51:29.587Z,0
2017-05-24T02:52:10.082Z,0
2017-05-24T02:52:50.568Z,0
2017-05-24T02:53:31.047Z,0
2017-05-24T02:54:11.546Z,0
2017-05-24T02:54:52.069Z,0
2017-05-24T02:55:32.544Z,0
2017-05-24T02:56:13.041Z,0
2017-05-24T02:56:53.544Z,0
2017-05-24T02:57:34.022Z,0
2017-05-24T02:58:14.515Z,0
2017-05-24T02:58:55.003Z,0
2017-05-24T02:59:35.513Z,0
2017-05-24T03:00:16.007Z,0
2017-05-24T03:00:56.495Z,0
2017-05-24T03:01:36.977Z,0
2017-05-24T03:02:17.476Z,0
2017-05-24T03:02:57.974Z,0
2017-05-24T03:03:38.459Z,0
2017-05-24T03:04:19.646Z,0
2017-05-24T03:05:00.159Z,0
2017-05-24T03:05:40.651Z,0
2017-05-24T03:06:21.150Z,0
2017-05-24T03:07:01.641Z,0
2017-05-24T03:07:42.103Z,0
2017-05-24T03:08:22.585Z,0
2017-05-24T03:09:03.064Z,0
2017-05-24T03:09:43.570Z,0
2017-05-24T03:10:24.058Z,0
2017-05-24T03:11:04.534Z,0
2017-05-24T03:11:45.023Z,0
2017-05-24T03:12:25.512Z,0
2017-05-24T03:13:05.993Z,0
2017-05-24T03:13:46.484Z,0
2017-05-24T03:14:27.773Z,0
2017-05-24T03:15:08.259Z,0
2017-05-24T03:15:48.749Z,0
2017-05-24T03:16:29.214Z,0
2017-05-24T03:17:09.706Z,0
2017-05-24T03:17:50.191Z,0
2017-05-24T03:18:30.662Z,0
2017-05-24T03:19:11.138Z,0
2017-05-24T03:19:51.625Z,0
2017-05-24T03:20:32.132Z,0
2017-05-24T03:21:12.603Z,0
2017-05-24T03:21:53.867Z,0
2017-05-24T03:22:34.360Z,0
2017-05-24T03:23:14.847Z,0
2017-05-24T03:23:55.325Z,0
2017-05-24T03:24:35.823Z,0
2017-05-24T03:25:16.304Z,0
2017-05-24T03:25:56.793Z,0
2017-05-24T03:26:37.358Z,0
2017-05-24T03:27:17.852Z,0
2017-05-24T03:27:58.323Z,0
2017-05-24T03:28:38.801Z,0
2017-05-24T03:31:16.948Z,5
2017-05-24T03:31:57.427Z,5
2017-05-24T03:32:37.925Z,5
2017-05-24T03:33:18.418Z,5
2017-05-24T03:33:58.917Z,5
2017-05-24T03:34:39.405Z,5
2017-05-24T03:35:19.889Z,5
2017-05-24T03:36:00.383Z,5
2017-05-24T03:36:40.875Z,5
2017-05-24T03:37:21.355Z,5
2017-05-24T03:38:01.837Z,5
2017-05-24T03:38:42.361Z,5
2017-05-24T03:39:22.846Z,10
2017-05-24T03:40:03.336Z,10
2017-05-24T03:40:44.650Z,10
2017-05-24T03:41:25.141Z,10
2017-05-24T03:42:05.640Z,10
2017-05-24T03:42:46.125Z,10
2017-05-24T03:43:27.239Z,10
2017-05-24T03:44:07.729Z,15
2017-05-24T03:44:48.213Z,15
2017-05-24T03:45:28.688Z,15
2017-05-24T03:46:09.146Z,15
2017-05-24T03:46:49.643Z,15
2017-05-24T03:47:30.127Z,15
2017-05-24T03:48:10.598Z,20
2017-05-24T03:48:51.123Z,20
2017-05-24T03:49:31.635Z,20
2017-05-24T03:50:12.182Z,20
2017-05-24T03:50:52.613Z,20
2017-05-24T03:51:33.647Z,20
2017-05-24T03:52:14.132Z,25
2017-05-24T03:52:54.603Z,25
2017-05-24T03:53:35.107Z,25
2017-05-24T03:54:15.595Z,25
2017-05-24T03:54:56.081Z,25
2017-05-24T03:55:36.558Z,30
2017-05-24T03:56:17.049Z,30
2017-05-24T03:56:58.020Z,30
2017-05-24T03:59:25.974Z,30
2017-05-24T04:00:06.462Z,30
2017-05-24T04:00:46.948Z,30
2017-05-24T04:01:27.418Z,35
2017-05-24T04:02:07.910Z,35
2017-05-24T04:02:48.385Z,35
2017-05-24T04:03:28.874Z,35
2017-05-24T04:04:09.354Z,35
2017-05-24T04:04:49.847Z,35
2017-05-24T04:05:31.027Z,35
2017-05-24T04:06:11.523Z,40
2017-05-24T04:06:52.028Z,40
2017-05-24T04:07:32.497Z,40
2017-05-24T04:08:13.944Z,40
2017-05-24T04:08:54.420Z,40
2017-05-24T04:09:34.975Z,45
2017-05-24T04:10:15.424Z,45
2017-05-24T04:10:55.917Z,45
2017-05-24T04:11:37.176Z,45
2017-05-24T04:12:18.167Z,50
2017-05-24T04:12:59.452Z,50
2017-05-24T04:13:39.933Z,50
2017-05-24T04:14:20.423Z,50
2017-05-24T04:15:00.915Z,50
2017-05-24T04:15:43.046Z,50
2017-05-24T04:16:23.540Z,55
2017-05-24T04:17:04.040Z,55
2017-05-24T04:17:44.525Z,55
2017-05-24T04:18:25.019Z,55
2017-05-24T04:19:05.516Z,60
2017-05-24T04:19:46.003Z,60
2017-05-24T04:20:26.495Z,60
2017-05-24T04:21:06.993Z,60
2017-05-24T04:21:47.466Z,65
2017-05-24T04:22:27.978Z,65
2017-05-24T04:23:08.466Z,65
2017-05-24T04:23:48.957Z,65
2017-05-24T04:24:29.447Z,65
2017-05-24T04:25:09.941Z,70
2017-05-24T04:25:50.430Z,70
2017-05-24T04:26:30.892Z,70
2017-05-24T04:27:11.385Z,70
2017-05-24T04:27:51.877Z,75
2017-05-24T04:28:32.368Z,75
2017-05-24T04:29:12.857Z,75
2017-05-24T04:29:53.320Z,80
2017-05-24T04:30:33.759Z,80
2017-05-24T04:31:14.949Z,80
2017-05-24T04:31:55.446Z,85
2017-05-24T04:32:35.931Z,85
2017-05-24T04:33:16.958Z,85
2017-05-24T04:33:58.460Z,85
2017-05-24T04:34:38.950Z,90
2017-05-24T04:35:19.445Z,90
2017-05-24T04:35:59.936Z,95
2017-05-24T04:36:40.414Z,100
2017-05-24T04:37:20.906Z,100
2017-05-24T04:38:01.374Z,105
2017-05-24T04:38:41.905Z,105
2017-05-24T04:40:59.768Z,115
2017-05-24T04:43:17.562Z,130
2017-05-24T04:43:58.060Z,130
2017-05-24T04:44:38.553Z,135
2017-05-24T04:45:19.051Z,130
2017-05-24T04:46:00.281Z,135
2017-05-24T04:46:40.785Z,135
2017-05-24T04:47:21.292Z,135
2017-05-24T04:48:01.766Z,135
2017-05-24T04:48:42.253Z,135
2017-05-24T04:49:22.775Z,135
2017-05-24T04:50:03.252Z,130
2017-05-24T04:50:43.737Z,135
2017-05-24T04:51:24.777Z,135
2017-05-24T04:52:05.267Z,135
2017-05-24T04:52:45.763Z,140
2017-05-24T04:53:26.270Z,140
2017-05-24T04:54:06.744Z,145
2017-05-24T04:54:47.237Z,145
2017-05-24T04:55:27.724Z,145
2017-05-24T04:56:08.219Z,150
2017-05-24T04:56:48.719Z,155
2017-05-24T04:57:29.200Z,155
2017-05-24T04:58:09.691Z,155
2017-05-24T04:58:50.158Z,160
2017-05-24T04:59:30.648Z,160
2017-05-24T05:00:11.131Z,160
2017-05-24T05:00:51.605Z,160
2017-05-24T05:01:32.108Z,160
2017-05-24T05:02:12.614Z,160
2017-05-24T05:02:53.089Z,160
2017-05-24T05:03:33.607Z,165
2017-05-24T05:04:14.654Z,165
2017-05-24T05:04:55.152Z,165
2017-05-24T05:05:35.647Z,165
2017-05-24T05:06:16.154Z,165
2017-05-24T05:06:57.415Z,165
2017-05-24T05:07:37.904Z,170
2017-05-24T05:08:18.411Z,170
2017-05-24T05:08:58.919Z,170
2017-05-24T05:09:39.395Z,170
2017-05-24T05:10:19.895Z,170
2017-05-24T05:12:58.039Z,175
2017-05-24T05:13:38.547Z,175
2017-05-24T05:14:19.015Z,180
2017-05-24T05:14:59.503Z,180
2017-05-24T05:15:40.518Z,185
2017-05-24T05:16:21.005Z,185
2017-05-24T05:17:01.486Z,185
2017-05-24T05:17:42.935Z,190
2017-05-24T05:18:23.416Z,190
2017-05-24T05:19:03.905Z,185
2017-05-24T05:19:44.422Z,190
2017-05-24T05:20:24.905Z,195
2017-05-24T05:21:05.393Z,195
2017-05-24T05:21:45.904Z,195
2017-05-24T05:22:26.404Z,195
2017-05-24T05:23:06.889Z,190
2017-05-24T05:23:47.425Z,190
2017-05-24T05:24:27.907Z,195
2017-05-24T05:25:08.340Z,195
2017-05-24T05:25:48.852Z,190
2017-05-24T05:26:29.345Z,185
2017-05-24T05:27:09.832Z,185
2017-05-24T05:27:50.343Z,180
2017-05-24T05:28:30.840Z,175
2017-05-24T05:29:11.345Z,185
2017-05-24T05:29:51.835Z,200
2017-05-24T05:30:32.341Z,190
2017-05-24T05:31:12.835Z,180
2017-05-24T05:31:53.327Z,200
2017-05-24T05:32:33.830Z,205
2017-05-24T05:33:14.316Z,205
2017-05-24T05:33:55.730Z,210
2017-05-24T05:36:33.834Z,190
2017-05-24T05:37:14.316Z,205
2017-05-24T05:37:54.821Z,215
2017-05-24T05:38:35.309Z,215
2017-05-24T05:39:15.807Z,210
2017-05-24T05:39:56.303Z,205
2017-05-24T05:40:36.797Z,220
2017-05-24T05:41:17.303Z,220
2017-05-24T05:41:57.807Z,220
2017-05-24T05:42:38.299Z,220
2017-05-24T05:43:18.781Z,225
2017-05-24T05:43:59.917Z,230
2017-05-24T05:44:40.428Z,230
2017-05-24T05:45:20.913Z,230
2017-05-24T05:46:01.371Z,235
2017-05-24T05:46:41.851Z,235
2017-05-24T05:47:22.376Z,240
2017-05-24T05:48:02.907Z,240
2017-05-24T05:48:43.350Z,240
2017-05-24T05:49:23.813Z,240
2017-05-24T05:50:04.290Z,240
2017-05-24T05:50:45.671Z,245
2017-05-24T05:51:26.164Z,245
2017-05-24T05:53:43.982Z,245
2017-05-24T05:54:24.453Z,245
2017-05-24T05:55:04.932Z,245
2017-05-24T05:55:45.415Z,245
2017-05-24T05:56:26.882Z,240
2017-05-24T05:57:07.421Z,240
2017-05-24T05:57:47.906Z,245
2017-05-24T05:58:28.404Z,235
2017-05-24T05:59:08.905Z,240
2017-05-24T05:59:49.405Z,240
2017-05-24T06:00:29.931Z,245
2017-05-24T06:01:10.415Z,255
2017-05-24T06:01:50.905Z,260
2017-05-24T06:02:32.190Z,265
2017-05-24T06:03:12.646Z,265
2017-05-24T06:03:53.107Z,270
2017-05-24T06:06:05.922Z,275
2017-05-24T06:06:46.446Z,275
2017-05-24T06:08:59.162Z,285
2017-05-24T06:09:39.664Z,285
2017-05-24T06:10:20.125Z,285
2017-05-24T06:11:00.627Z,290
2017-05-24T06:11:41.081Z,290
2017-05-24T06:12:21.532Z,295
2017-05-24T06:13:01.982Z,295
2017-05-24T06:13:43.261Z,295
2017-05-24T06:14:23.696Z,300
2017-05-24T06:17:01.810Z,305
2017-05-24T06:17:42.311Z,310
2017-05-24T06:18:22.808Z,315
2017-05-24T06:19:04.301Z,320
2017-05-24T06:19:44.806Z,320
2017-05-24T06:20:25.307Z,325
2017-05-24T06:21:05.775Z,330
2017-05-24T06:21:46.328Z,330
2017-05-24T06:22:26.828Z,335
2017-05-24T06:23:07.334Z,340
2017-05-24T06:23:47.807Z,340
2017-05-24T06:24:28.349Z,345
2017-05-24T06:25:08.815Z,345
2017-05-24T06:25:49.321Z,355
2017-05-24T06:26:29.809Z,355
2017-05-24T06:27:10.889Z,350
2017-05-24T06:27:51.406Z,355
2017-05-24T06:28:31.895Z,355
2017-05-24T06:30:45.328Z,360
2017-05-24T06:31:25.840Z,365
2017-05-24T06:32:06.341Z,370
2017-05-24T06:32:46.842Z,375
2017-05-24T06:33:27.334Z,375
2017-05-24T06:34:07.824Z,385
2017-05-24T06:34:48.306Z,385
2017-05-24T06:35:28.805Z,395
2017-05-24T06:36:09.335Z,405
2017-05-24T06:36:49.830Z,400
2017-05-24T06:37:30.324Z,400
2017-05-24T06:38:10.824Z,400
2017-05-24T06:38:51.338Z,405
2017-05-24T06:39:32.545Z,405
2017-05-24T06:40:13.043Z,405
2017-05-24T06:40:53.537Z,405
2017-05-24T06:41:34.041Z,410
2017-05-24T06:42:14.536Z,415
2017-05-24T06:42:55.942Z,425
2017-05-24T06:43:36.447Z,425
2017-05-24T06:44:16.949Z,430
2017-05-24T06:44:58.218Z,435
2017-05-24T06:45:38.742Z,440
2017-05-24T06:46:19.266Z,440
2017-05-24T06:46:59.760Z,445
2017-05-24T06:47:40.881Z,450
2017-05-24T06:48:21.332Z,455
2017-05-24T06:49:01.822Z,465
2017-05-24T06:49:42.329Z,465
2017-05-24T06:50:22.827Z,470
2017-05-24T06:51:04.227Z,470
2017-05-24T06:51:44.718Z,470
2017-05-24T06:52:26.021Z,450
2017-05-24T06:53:07.461Z,465
2017-05-24T06:53:48.555Z,480
2017-05-24T06:54:29.085Z,480
2017-05-24T06:55:09.580Z,480
2017-05-24T06:55:50.086Z,490
2017-05-24T06:56:30.577Z,485
2017-05-24T06:57:11.074Z,490
2017-05-24T06:57:51.581Z,490
2017-05-24T06:58:32.070Z,490
2017-05-24T06:59:12.575Z,495
2017-05-24T06:59:53.079Z,495
2017-05-24T07:00:33.570Z,500
2017-05-24T07:01:14.641Z,505
2017-05-24T07:01:55.123Z,505
2017-05-24T07:02:35.617Z,510
2017-05-24T07:03:16.169Z,515
2017-05-24T07:03:56.638Z,520
2017-05-24T07:04:37.137Z,525
2017-05-24T07:05:17.630Z,530
2017-05-24T07:05:58.165Z,535
2017-05-24T07:06:38.706Z,540
2017-05-24T07:07:19.224Z,545
2017-05-24T07:07:59.738Z,550
2017-05-24T07:08:40.236Z,555
2017-05-24T07:09:20.722Z,555
2017-05-24T07:10:01.204Z,555
2017-05-24T07:10:41.686Z,560
2017-05-24T07:11:22.180Z,560
2017-05-24T07:12:03.516Z,565
2017-05-24T07:12:44.016Z,570
2017-05-24T07:13:24.494Z,575
2017-05-24T07:14:05.025Z,580
2017-05-24T07:14:45.529Z,590
2017-05-24T07:15:26.049Z,585
2017-05-24T07:16:06.531Z,590
2017-05-24T07:16:47.033Z,600
2017-05-24T07:17:27.522Z,600
2017-05-24T07:18:08.002Z,605
2017-05-24T07:18:48.505Z,610
2017-05-24T07:19:29.013Z,615
2017-05-24T07:20:09.481Z,615
2017-05-24T07:20:49.985Z,620
2017-05-24T07:21:30.470Z,630
2017-05-24T07:22:10.964Z,635
2017-05-24T07:22:51.555Z,645
2017-05-24T07:23:32.083Z,645
2017-05-24T07:24:12.567Z,650
2017-05-24T07:24:53.039Z,660
2017-05-24T07:25:33.512Z,660
2017-05-24T07:26:14.013Z,665
2017-05-24T07:26:54.479Z,670
2017-05-24T07:27:35.024Z,675
2017-05-24T07:28:16.156Z,680
2017-05-24T07:28:56.678Z,690
2017-05-24T07:29:37.202Z,700
2017-05-24T07:30:17.660Z,715
2017-05-24T07:30:58.208Z,730
2017-05-24T07:31:38.658Z,745
2017-05-24T07:32:19.213Z,755
2017-05-24T07:32:59.745Z,770
2017-05-24T07:33:40.245Z,790
2017-05-24T07:34:20.748Z,835
2017-05-24T07:35:01.299Z,900
2017-05-24T07:35:41.799Z,990
2017-05-24T07:36:22.290Z,1285
2017-05-24T07:37:02.832Z,2320
2017-05-24T07:37:43.485Z,3895
2017-05-24T07:38:23.974Z,4575
2017-05-24T07:39:04.404Z,4030
2017-05-24T07:39:44.860Z,2840
2017-05-24T07:40:25.392Z,2360
2017-05-24T07:41:05.848Z,2110
2017-05-24T07:41:46.310Z,2130
2017-05-24T07:42:26.773Z,2175
2017-05-24T07:44:39.535Z,2255
2017-05-24T07:45:20.012Z,2245
2017-05-24T07:46:00.543Z,2030
2017-05-24T07:46:41.097Z,1980
2017-05-24T07:47:21.627Z,1845
2017-05-24T07:48:02.139Z,1605
2017-05-24T07:48:42.620Z,1300
2017-05-24T07:49:23.123Z,1080
2017-05-24T07:50:03.681Z,860
2017-05-24T07:50:44.171Z,670
2017-05-24T07:51:25.316Z,555
2017-05-24T07:52:05.967Z,520
2017-05-24T07:52:46.424Z,525
2017-05-24T07:53:26.903Z,535
2017-05-24T07:54:07.385Z,545
2017-05-24T07:54:48.579Z,550
2017-05-24T07:55:29.053Z,545
2017-05-24T07:56:09.561Z,535
2017-05-24T07:56:50.065Z,540
2017-05-24T07:57:32.089Z,550
2017-05-24T07:58:12.612Z,565
2017-05-24T07:58:53.128Z,600
2017-05-24T07:59:33.705Z,595
2017-05-24T08:00:14.278Z,610
2017-05-24T08:00:54.973Z,650
2017-05-24T08:01:35.533Z,675
2017-05-24T08:02:16.131Z,680
2017-05-24T08:02:56.724Z,665
2017-05-24T08:03:37.293Z,655
2017-05-24T08:04:17.920Z,670
2017-05-24T08:04:58.574Z,710
2017-05-24T08:05:39.175Z,730
2017-05-24T08:06:20.453Z,740
2017-05-24T08:07:01.053Z,750
2017-05-24T08:07:41.686Z,760
2017-05-24T08:08:22.267Z,820
2017-05-24T08:09:02.885Z,800
2017-05-24T08:09:43.582Z,795
2017-05-24T08:10:24.145Z,755
2017-05-24T08:11:04.754Z,765
2017-05-24T08:11:45.373Z,780
2017-05-24T08:12:25.969Z,805
2017-05-24T08:13:06.553Z,815
2017-05-24T08:13:48.078Z,825
2017-05-24T08:14:28.632Z,805
2017-05-24T08:15:09.248Z,815
2017-05-24T08:15:49.844Z,845
2017-05-24T08:16:30.492Z,855
2017-05-24T08:17:11.158Z,860
2017-05-24T08:17:51.842Z,865
2017-05-24T08:18:33.186Z,860
2017-05-24T08:19:13.751Z,875
2017-05-24T08:19:54.364Z,960
2017-05-24T08:20:35.444Z,1065
2017-05-24T08:21:16.012Z,1240
2017-05-24T08:21:56.588Z,1430
2017-05-24T08:22:37.182Z,1725
2017-05-24T08:23:17.817Z,1930
2017-05-24T08:23:58.498Z,1935
2017-05-24T08:24:39.131Z,1795
2017-05-24T08:25:20.726Z,1595
2017-05-24T08:26:01.344Z,1290
2017-05-24T08:26:41.964Z,1060
2017-05-24T08:27:22.610Z,875
2017-05-24T08:28:03.162Z,780
2017-05-24T08:28:43.852Z,790
2017-05-24T08:29:24.331Z,775
2017-05-24T08:30:04.856Z,725
2017-05-24T08:30:45.335Z,680
2017-05-24T08:31:26.366Z,685
2017-05-24T08:32:06.938Z,665
2017-05-24T08:32:47.408Z,670
2017-05-24T08:33:28.763Z,700
2017-05-24T08:34:09.269Z,770
2017-05-24T08:34:49.762Z,900
2017-05-24T08:35:30.277Z,1055
2017-05-24T08:36:10.834Z,1225
2017-05-24T08:36:52.168Z,1430
2017-05-24T08:37:32.699Z,1615
2017-05-24T08:38:13.240Z,1555
2017-05-24T08:38:53.734Z,1215
2017-05-24T08:39:34.237Z,770
2017-05-24T08:40:14.801Z,555
2017-05-24T08:40:55.825Z,540
2017-05-24T08:41:36.295Z,540
2017-05-24T08:42:16.810Z,540
2017-05-24T08:42:57.292Z,520
2017-05-24T08:43:37.764Z,535
2017-05-24T08:44:18.952Z,535
2017-05-24T08:46:47.056Z,535
2017-05-24T08:47:27.524Z,535
2017-05-24T08:48:08.035Z,550
2017-05-24T08:48:49.158Z,590
2017-05-24T08:49:29.676Z,800
2017-05-24T08:50:10.201Z,1500
2017-05-24T08:50:50.743Z,2155
2017-05-24T08:51:31.284Z,2010
2017-05-24T08:52:11.786Z,2555
2017-05-24T08:52:52.262Z,2925
2017-05-24T08:53:32.734Z,2710
2017-05-24T08:54:13.213Z,2445
2017-05-24T08:54:53.856Z,1865
2017-05-24T08:55:34.377Z,2380
2017-05-24T08:56:14.893Z,2335
2017-05-24T08:56:55.462Z,2195
2017-05-24T08:57:36.566Z,2320
2017-05-24T08:58:17.019Z,2460
2017-05-24T08:58:57.524Z,2165
2017-05-24T08:59:38.051Z,2545
2017-05-24T09:00:18.551Z,1735
2017-05-24T09:00:59.130Z,1150
2017-05-24T09:01:39.634Z,1570
2017-05-24T09:02:20.123Z,2395
2017-05-24T09:03:00.593Z,2335
2017-05-24T09:03:41.102Z,2475
2017-05-24T09:04:22.181Z,2535
2017-05-24T09:05:02.676Z,2700
2017-05-24T09:05:43.185Z,2770
2017-05-24T09:06:24.176Z,2665
2017-05-24T09:07:04.630Z,2605
2017-05-24T09:09:17.398Z,2710
2017-05-24T09:09:57.908Z,2725
2017-05-24T09:10:38.404Z,2255
2017-05-24T09:11:18.896Z,2370
2017-05-24T09:11:59.346Z,2640
2017-05-24T09:12:39.846Z,2670
2017-05-24T09:13:20.381Z,2785
2017-05-24T09:14:00.834Z,2745
2017-05-24T09:14:41.310Z,2575
2017-05-24T09:15:21.769Z,2605
2017-05-24T09:16:02.235Z,2770
2017-05-24T09:16:42.735Z,2765
2017-05-24T09:17:23.216Z,2950
2017-05-24T09:18:03.730Z,2945
2017-05-24T09:18:44.210Z,2960
2017-05-24T09:19:24.706Z,2900
2017-05-24T09:20:05.158Z,2775
2017-05-24T09:20:45.665Z,2745
2017-05-24T09:21:26.144Z,2430
2017-05-24T09:23:44.094Z,2530
2017-05-24T09:24:24.621Z,2410
2017-05-24T09:25:05.197Z,2660
2017-05-24T09:25:46.462Z,2630
2017-05-24T09:26:26.958Z,2710
2017-05-24T09:27:08.373Z,2555
2017-05-24T09:29:36.404Z,2795
2017-05-24T09:30:16.976Z,2410
2017-05-24T09:30:57.461Z,2695
2017-05-24T09:31:37.928Z,2460
2017-05-24T09:32:18.414Z,2180
2017-05-24T09:32:58.857Z,1840
2017-05-24T09:33:39.380Z,1405
2017-05-24T09:34:19.929Z,1600
2017-05-24T09:35:00.459Z,545
2017-05-24T09:35:41.014Z,540
2017-05-24T09:37:58.901Z,465
2017-05-24T09:40:17.034Z,890
2017-05-24T09:40:58.233Z,880
2017-05-24T09:41:38.814Z,890
2017-05-24T09:42:19.362Z,895
2017-05-24T09:42:59.910Z,900
2017-05-24T09:45:38.156Z,1255
2017-05-24T09:46:18.680Z,1525
2017-05-24T09:46:59.239Z,1945
2017-05-24T09:47:39.730Z,2255
2017-05-24T09:48:20.259Z,2610
2017-05-24T09:49:00.808Z,2780
2017-05-24T09:49:41.314Z,2775
2017-05-24T09:50:21.817Z,2825
2017-05-24T09:51:02.383Z,2800
2017-05-24T09:51:42.821Z,2865
2017-05-24T09:52:23.305Z,2745
2017-05-24T09:55:02.336Z,3255
2017-05-24T09:55:42.828Z,3155
2017-05-24T09:58:10.788Z,3185
2017-05-24T09:58:51.316Z,3090
2017-05-24T10:01:29.519Z,575
2017-05-24T10:02:10.007Z,1495
2017-05-24T10:04:43.063Z,2550
2017-05-24T10:05:23.609Z,2705
2017-05-24T10:06:04.011Z,2885
2017-05-24T10:06:44.472Z,2920
2017-05-24T10:07:24.937Z,2925
2017-05-24T10:08:05.419Z,3040
2017-05-24T10:10:18.180Z,2795
2017-05-24T10:10:58.685Z,1740
2017-05-24T10:11:39.186Z,2060
2017-05-24T10:12:19.689Z,780
2017-05-24T10:13:00.170Z,690
2017-05-24T10:13:40.667Z,2415
2017-05-24T10:14:21.127Z,2965
2017-05-24T10:15:01.576Z,2050
2017-05-24T10:15:42.077Z,855
2017-05-24T10:16:22.554Z,685
2017-05-24T10:17:03.068Z,2955
2017-05-24T10:17:43.540Z,3060
2017-05-24T10:20:11.559Z,2875
2017-05-24T10:20:52.017Z,2395
2017-05-24T10:21:32.487Z,1575
2017-05-24T10:24:11.523Z,815
2017-05-24T10:24:51.989Z,780
2017-05-24T10:25:32.474Z,765
2017-05-24T10:26:12.985Z,760
2017-05-24T10:26:53.502Z,745
2017-05-24T10:27:33.990Z,760
2017-05-24T10:28:14.508Z,785
2017-05-24T10:28:55.006Z,840
2017-05-24T10:29:35.481Z,815
2017-05-24T10:30:16.888Z,825
2017-05-24T10:30:57.393Z,745
2017-05-24T10:31:37.925Z,740